Terminal Aerodrome Forecast
Issued by NWS

Home | Current Version | Previous Version | Graphics & Text | Print | Product List | Glossary Off
Versions: 1 2 3 4 5 6 7 8 9 10 11 12 13 14 15 16 17 18

000
FTUS43 KABR 061100
TAFPIR
TAF
KPIR 061126Z 0612/0712 25010KT P6SM SCT080
     FM061500 26009KT P6SM SCT250
     FM070200 29011KT P6SM BKN250=

USA.gov is the U.S. government's official web portal to all federal, state and local government web resources and services.